Terminal Aerodrome Forecast
Issued by NWS Tampa Bay Area, FL

Home | Current Version | Previous Version | Text Only | Print | Product List | Glossary On
Versions: 1 2 3 4 5 6 7 8 9 10 11 12 13
369
FTUS42 KTBW 280719 AAA
TAFSRQ
TAF AMD
KSRQ 280719Z 2807/2906 VRB03KT 4SM BR SKC
     FM280900 VRB03KT 6SM BR SKC
      TEMPO 2809/2812 3SM BR
     FM281400 15008KT P6SM FEW030
     FM281600 19014KT P6SM SCT040
     FM281900 22013KT P6SM SCT050
     FM290200 12006KT P6SM FEW050=

USA.gov is the U.S. government's official web portal to all federal, state and local government web resources and services.